Aérodrome :
LOGIN :

S'inscrire | Disclaimer

   EN    FR    IT 

 










Légende :    VFR   VFR Marginal   IFR   IFR Intensif   IFR Très Intensif
Visi : 
Plafond : 
>= 8 km
>= 3000ft
5 à 8 km
1000 à 3000 ft
1500m à 5 km
500 à 1000 ft
800 à 1500m
200 à 500 ft
< 800m
< 200 ft
Symboles :   Orages  Brouillard  Fortes neiges  Fortes précipitations  Vent > 20 kt
SIGMETs :   Divers  Orages  Givrage  Turbulence  Onde Orograph.  Cendres Volcan.






- Altitude de l'aérodrome : 459 ft
- Code IATA : CER


LFRC - Cherbourg / Maupertus

DERNIER METAR :
  • 172030Z AUTO 26018G30KT 9999 4100 -RA FEW020/// BKN039/// BKN056/// ///TCU 06/03 Q1021

METARs EXPIRÉS :
  • 172000Z AUTO 24013KT 9999 SCT024/// BKN032/// BKN041/// ///TCU 05/03 Q1020
  • 171930Z AUTO 27011KT 9999 SCT045/// SCT082/// BKN130/// ///TCU 05/03 Q1020
  • 171900Z AUTO 26018KT 9999 -RA FEW016/// SCT046/// BKN062/// ///CB 06/03 Q1020
  • 171830Z AUTO 22010KT 9999 FEW034/// SCT090/// BKN150/// ///TCU 04/03 Q1020 TEMPO 2000 TSRAGS BKN012CB BECMG 26020G35KT
  • 171800Z AUTO 25013KT 8000 -RA FEW024/// BKN034/// BKN047/// ///CB 05/03 Q1020 TEMPO 27020G45KT 2000 TSRAGS BKN012CB

TAF TAF LFRC
Valide du 17 à 15h jusqu'au 18 à 00h UTC


171400Z 1715/1724 26020G35KT 9999 BKN025
TEMPO 1715/1724 4000 SHRA BKN015CB
PROB40
TEMPO 1715/1724 2000 TSRAGS BKN012CB
TEMPO 1715/1720 27020G45KT



MET'MAP, la Météo Aéronautique d'un coup d'oeil ! - Copyright ORBIFLY Décembre 2007 - Disclaimer

ORBIFLY MET'MAP TEAM :

Programmation & Développement : Alexandra Zaïnal
Sur une idée originale de : Baudouin d'Aumeries
Assistance à la programmation : Marc-Olivier Méhu
Soutien technique & logistique : Manuel Goepfert

Contact : metmap@orbifly.com




SOURCES & CREDITS :

   NOAA